Time;durP1;ratioP1;P1;durP2;ratioP2;P2;SDS_P1;SDS_P2;PMS_P1;PMS_P2;Temp;Humidity;BMP_temperature;BMP_pressure;BME280_temperature;BME280_humidity;BME280_pressure;Samples;Min_cycle;Max_cycle;Signal;HPM_P1;HPM_P2
2022/01/11 00:00:27;;;;;;;12.27;2.38;;;26.10;99.90;;;;;;5053021;28;20076;-76
2022/01/11 00:02:56;;;;;;;8.13;2.08;;;26.10;99.90;;;;;;5053151;28;20068;-71
2022/01/11 00:05:42;;;;;;;12.48;2.45;;;26.20;99.90;;;;;;5053092;28;20100;-71
2022/01/11 00:08:11;;;;;;;10.40;1.55;;;26.70;99.90;;;;;;5052930;28;20025;-76
2022/01/11 00:11:24;;;;;;;10.98;1.83;;;27.00;99.90;;;;;;5053167;28;20068;-71
2022/01/11 00:13:26;;;;;;;7.55;1.75;;;27.20;99.90;;;;;;5049267;28;20075;-71
2022/01/11 00:15:53;;;;;;;6.28;1.70;;;27.30;99.90;;;;;;5053202;28;20036;-71
2022/01/11 00:18:21;;;;;;;6.63;1.70;;;27.10;99.90;;;;;;5055378;28;20035;-75
2022/01/11 00:20:48;;;;;;;7.70;1.40;;;27.20;99.90;;;;;;5057664;28;20108;-71
2022/01/11 00:25:45;;;;;;;9.60;2.20;;;27.40;99.90;;;;;;5057055;28;20061;-72
2022/01/11 00:28:15;;;;;;;4.07;1.38;;;27.80;99.90;;;;;;5056458;28;20048;-72
2022/01/11 00:30:44;;;;;;;10.27;1.92;;;27.90;99.90;;;;;;5056927;28;20513;-71
2022/01/11 00:33:17;;;;;;;7.65;2.28;;;27.90;99.90;;;;;;5056670;28;20029;-71
2022/01/11 00:35:49;;;;;;;5.97;1.77;;;27.50;99.90;;;;;;5056822;28;20507;-71
2022/01/11 00:38:18;;;;;;;3.95;1.00;;;27.20;99.90;;;;;;5057090;28;20498;-71
2022/01/11 00:40:55;;;;;;;5.53;1.30;;;27.20;99.90;;;;;;5057022;28;20043;-72
2022/01/11 00:43:25;;;;;;;5.72;1.83;;;27.30;99.90;;;;;;5056695;28;20021;-71
2022/01/11 00:45:54;;;;;;;4.82;1.35;;;27.10;99.90;;;;;;5056452;28;20032;-71
2022/01/11 00:48:22;;;;;;;8.05;1.80;;;27.00;99.90;;;;;;5056260;28;20044;-71
2022/01/11 00:50:50;;;;;;;10.50;2.05;;;27.00;99.90;;;;;;5056505;28;20029;-71
2022/01/11 00:53:18;;;;;;;5.38;1.50;;;26.80;99.90;;;;;;5056876;28;20025;-72
2022/01/11 00:55:49;;;;;;;4.95;1.67;;;26.80;99.90;;;;;;5056342;28;20106;-76
2022/01/11 00:58:18;;;;;;;7.72;1.45;;;27.00;99.90;;;;;;5056517;28;20025;-76
2022/01/11 01:00:46;;;;;;;8.30;2.60;;;27.00;99.90;;;;;;5056350;28;20025;-72
2022/01/11 01:03:14;;;;;;;9.30;1.63;;;27.00;99.90;;;;;;5056317;28;20059;-72
2022/01/11 01:05:42;;;;;;;7.53;2.33;;;27.10;99.90;;;;;;5056107;28;20024;-72
2022/01/11 01:08:10;;;;;;;10.88;2.65;;;27.20;99.90;;;;;;5056017;28;20428;-72
2022/01/11 01:10:40;;;;;;;18.17;3.28;;;27.10;99.90;;;;;;5056040;28;20036;-72
2022/01/11 01:13:17;;;;;;;8.90;2.60;;;27.00;99.90;;;;;;5056083;28;20044;-72
2022/01/11 01:15:47;;;;;;;9.45;1.92;;;27.00;99.90;;;;;;5056138;28;20029;-71
2022/01/11 01:18:17;;;;;;;6.40;2.15;;;27.00;99.90;;;;;;5056000;28;20079;-72
2022/01/11 01:20:46;;;;;;;8.30;1.90;;;27.10;99.90;;;;;;5055917;28;20056;-77
2022/01/11 01:23:14;;;;;;;9.07;2.22;;;27.20;99.90;;;;;;5055740;28;20021;-72
2022/01/11 01:25:43;;;;;;;8.55;2.15;;;27.30;99.90;;;;;;5055908;28;20104;-71
2022/01/11 01:28:11;;;;;;;6.20;1.60;;;27.10;99.90;;;;;;5055175;28;20048;-72
2022/01/11 01:30:39;;;;;;;8.88;2.10;;;27.10;99.90;;;;;;5055233;28;20064;-72
2022/01/11 01:33:07;;;;;;;7.10;1.52;;;27.10;99.90;;;;;;5055599;28;20021;-72
2022/01/11 01:35:44;;;;;;;9.75;2.22;;;27.10;99.90;;;;;;5055548;28;20025;-72
2022/01/11 01:38:12;;;;;;;9.15;2.08;;;26.90;99.90;;;;;;5055524;28;20104;-71
2022/01/11 01:40:45;;;;;;;16.30;3.47;;;26.80;99.90;;;;;;5055550;28;20049;-71
2022/01/11 01:43:13;;;;;;;11.40;2.33;;;26.80;99.90;;;;;;5055381;28;20104;-71
2022/01/11 01:45:43;;;;;;;6.82;1.63;;;26.70;99.90;;;;;;5055498;28;20074;-71
2022/01/11 01:48:12;;;;;;;6.95;1.80;;;26.60;99.90;;;;;;5055137;28;20037;-73
2022/01/11 01:50:39;;;;;;;7.90;2.83;;;26.70;99.90;;;;;;5055401;28;20048;-71
2022/01/11 01:53:11;;;;;;;5.45;1.92;;;26.80;99.90;;;;;;5055609;28;20470;-77
2022/01/11 01:55:40;;;;;;;7.85;2.03;;;26.80;99.90;;;;;;5055218;28;20074;-71
2022/01/11 01:58:09;;;;;;;9.25;1.60;;;26.80;99.90;;;;;;5055155;28;20382;-72
2022/01/11 02:00:51;;;;;;;11.40;2.33;;;26.60;99.90;;;;;;5055187;28;20104;-74
2022/01/11 02:03:25;;;;;;;13.00;2.97;;;26.30;99.90;;;;;;5055253;28;20466;-77
2022/01/11 02:05:54;;;;;;;11.67;2.57;;;26.10;99.90;;;;;;5055099;28;20071;-71
2022/01/11 02:08:22;;;;;;;10.80;2.45;;;25.90;99.90;;;;;;5054670;28;20032;-71
2022/01/11 02:10:50;;;;;;;9.77;2.83;;;26.00;99.90;;;;;;5054831;28;20033;-71
2022/01/11 02:13:18;;;;;;;10.48;3.17;;;26.00;99.90;;;;;;5054833;28;20035;-72
2022/01/11 02:15:46;;;;;;;11.80;2.72;;;26.10;99.90;;;;;;5054963;28;20466;-75
2022/01/11 02:18:16;;;;;;;7.88;2.47;;;25.90;99.90;;;;;;5054806;28;20377;-73
2022/01/11 02:20:45;;;;;;;15.45;3.53;;;25.80;99.90;;;;;;5054920;28;20131;-72
2022/01/11 02:23:16;;;;;;;14.80;2.83;;;25.70;99.90;;;;;;5054862;28;20457;-72
2022/01/11 02:25:44;;;;;;;9.88;2.38;;;25.50;99.90;;;;;;5054682;28;20108;-72
2022/01/11 02:28:14;;;;;;;9.68;3.17;;;25.50;99.90;;;;;;5054323;28;20472;-72
2022/01/11 02:30:42;;;;;;;13.75;3.22;;;25.50;99.90;;;;;;5054672;28;20040;-72
2022/01/11 02:33:21;;;;;;;19.85;3.63;;;25.40;99.90;;;;;;5054592;28;20055;-73
2022/01/11 02:35:50;;;;;;;23.40;3.63;;;25.60;99.90;;;;;;5070056;28;20112;-76
2022/01/11 02:38:18;;;;;;;17.80;3.60;;;25.70;99.90;;;;;;5054307;28;20047;-72
2022/01/11 02:40:45;;;;;;;12.45;3.15;;;25.80;99.90;;;;;;5054346;28;20462;-72
2022/01/11 02:43:13;;;;;;;15.57;2.95;;;25.90;99.90;;;;;;5054416;28;20017;-76
2022/01/11 02:45:40;;;;;;;12.02;3.35;;;25.90;99.90;;;;;;5054343;28;20025;-71
2022/01/11 02:48:08;;;;;;;11.20;2.42;;;25.80;99.90;;;;;;5053969;28;20029;-72
2022/01/11 02:50:36;;;;;;;12.60;2.42;;;25.90;99.90;;;;;;5054046;28;20039;-72
2022/01/11 02:53:03;;;;;;;14.43;3.08;;;25.80;99.90;;;;;;5054332;28;20028;-71
2022/01/11 02:55:37;;;;;;;12.05;3.13;;;25.80;99.90;;;;;;5054200;28;20032;-72
2022/01/11 02:58:05;;;;;;;14.20;2.85;;;25.70;99.90;;;;;;5054152;28;20028;-73
2022/01/11 03:00:32;;;;;;;9.73;2.20;;;25.70;99.90;;;;;;5053925;28;20501;-72
2022/01/11 03:03:33;;;;;;;13.32;2.58;;;25.80;99.90;;;;;;5053902;28;20036;-73
2022/01/11 03:06:02;;;;;;;19.02;3.08;;;25.90;99.90;;;;;;5021147;28;20028;-72
2022/01/11 03:08:32;;;;;;;14.95;2.88;;;25.90;99.90;;;;;;5053630;28;20147;-71
2022/01/11 03:11:00;;;;;;;8.68;2.20;;;26.00;99.90;;;;;;5053998;28;20025;-72
2022/01/11 03:13:28;;;;;;;13.00;2.58;;;25.90;99.90;;;;;;5053776;28;20493;-71
2022/01/11 03:15:55;;;;;;;9.70;2.47;;;25.70;99.90;;;;;;5053677;28;20537;-72
2022/01/11 03:18:23;;;;;;;12.82;3.03;;;25.70;99.90;;;;;;5053701;28;20057;-73
2022/01/11 03:20:53;;;;;;;10.68;2.72;;;25.70;99.90;;;;;;5053590;28;20053;-71
2022/01/11 03:23:21;;;;;;;9.88;2.40;;;25.70;99.90;;;;;;5053836;28;20021;-71
2022/01/11 03:25:52;;;;;;;14.55;2.45;;;25.90;99.90;;;;;;5053715;28;20125;-71
2022/01/11 03:28:21;;;;;;;12.93;2.97;;;26.00;99.90;;;;;;5053051;28;20397;-72
2022/01/11 03:30:51;;;;;;;5.80;2.00;;;26.10;99.90;;;;;;5053579;28;20039;-71
2022/01/11 03:33:18;;;;;;;10.30;2.75;;;26.00;99.90;;;;;;5053649;28;20397;-71
2022/01/11 03:35:47;;;;;;;10.13;2.55;;;25.90;99.90;;;;;;5053496;28;20025;-71
2022/01/11 03:38:15;;;;;;;7.57;2.65;;;25.90;99.90;;;;;;5053403;28;20446;-72
2022/01/11 03:40:43;;;;;;;9.93;2.33;;;25.90;99.90;;;;;;5053369;28;20462;-71
2022/01/11 03:43:11;;;;;;;7.72;2.35;;;25.80;99.90;;;;;;5053443;28;20103;-71
2022/01/11 03:45:38;;;;;;;7.55;2.15;;;25.80;99.90;;;;;;5053452;28;20053;-71
2022/01/11 03:48:08;;;;;;;11.80;3.10;;;25.80;99.90;;;;;;5053159;28;20108;-71
2022/01/11 03:50:35;;;;;;;9.35;2.63;;;25.60;99.90;;;;;;5053059;28;20389;-71
2022/01/11 03:53:11;;;;;;;7.72;2.50;;;25.50;99.90;;;;;;5052705;28;20104;-71
2022/01/11 03:56:10;;;;;;;9.13;2.35;;;25.50;99.90;;;;;;5053122;28;20039;-71
2022/01/11 03:58:30;;;;;;;11.23;3.13;;;25.50;99.90;;;;;;5053105;28;20033;-72
2022/01/11 04:00:58;;;;;;;11.30;2.80;;;25.50;99.90;;;;;;5052912;28;20029;-71
2022/01/11 04:03:26;;;;;;;12.68;2.25;;;25.40;99.90;;;;;;5052992;28;20386;-71
2022/01/11 04:05:55;;;;;;;11.68;3.17;;;25.30;99.90;;;;;;5053159;28;20087;-71
2022/01/11 04:08:23;;;;;;;7.82;2.28;;;25.30;99.90;;;;;;5052912;28;20017;-71
2022/01/11 04:10:50;;;;;;;11.93;2.72;;;25.30;99.90;;;;;;5053187;28;20025;-71
2022/01/11 04:13:19;;;;;;;11.18;2.85;;;25.40;99.90;;;;;;5052946;28;20028;-71
2022/01/11 04:15:46;;;;;;;11.15;2.60;;;25.20;99.90;;;;;;5053074;28;20029;-73
2022/01/11 04:18:16;;;;;;;9.82;2.67;;;25.00;99.90;;;;;;5052911;28;20021;-71
2022/01/11 04:20:43;;;;;;;7.85;2.20;;;24.80;99.90;;;;;;5053695;28;20025;-71
2022/01/11 04:23:13;;;;;;;10.80;2.05;;;24.70;99.90;;;;;;5052850;28;20036;-71
2022/01/11 04:25:40;;;;;;;17.02;3.40;;;24.60;99.90;;;;;;5053072;28;20024;-76
2022/01/11 04:28:08;;;;;;;12.38;3.08;;;24.60;99.90;;;;;;5052546;28;20045;-71
2022/01/11 04:30:37;;;;;;;8.32;2.15;;;24.60;99.90;;;;;;5052744;28;20549;-72
2022/01/11 04:33:05;;;;;;;8.52;2.72;;;24.60;99.90;;;;;;5052804;28;20036;-72
2022/01/11 04:35:32;;;;;;;8.50;2.42;;;24.70;99.90;;;;;;5052777;28;20024;-76
2022/01/11 04:38:00;;;;;;;18.08;2.42;;;24.70;99.90;;;;;;5052831;28;20032;-74
2022/01/11 04:40:27;;;;;;;10.00;2.15;;;24.70;99.90;;;;;;5052776;28;20024;-75
2022/01/11 04:42:55;;;;;;;7.82;2.03;;;24.70;99.90;;;;;;5052881;28;20104;-72
2022/01/11 04:45:22;;;;;;;16.27;2.50;;;24.80;99.90;;;;;;5052769;28;20473;-72
2022/01/11 04:47:56;;;;;;;13.60;2.42;;;24.70;99.90;;;;;;5052709;28;20474;-71
2022/01/11 04:50:28;;;;;;;10.18;2.38;;;24.60;99.90;;;;;;5052693;28;20033;-72
2022/01/11 04:52:57;;;;;;;11.85;2.25;;;24.70;99.90;;;;;;5052879;28;20489;-72
2022/01/11 04:55:25;;;;;;;14.60;1.92;;;24.80;99.90;;;;;;5052751;28;20021;-72
2022/01/11 04:57:52;;;;;;;10.45;2.38;;;24.80;99.90;;;;;;5051396;28;20052;-72
2022/01/11 05:00:23;;;;;;;10.32;2.20;;;24.80;99.90;;;;;;5052527;28;20029;-72
2022/01/11 05:02:51;;;;;;;9.85;2.10;;;24.90;99.90;;;;;;5052727;28;20027;-72
2022/01/11 05:05:18;;;;;;;12.82;2.53;;;24.90;99.90;;;;;;5055006;28;20048;-72
2022/01/11 05:07:46;;;;;;;9.68;2.50;;;24.90;99.90;;;;;;5055939;28;20494;-74
2022/01/11 05:10:14;;;;;;;7.80;2.40;;;24.90;99.90;;;;;;5055973;28;20067;-71
2022/01/11 05:12:41;;;;;;;17.05;3.08;;;24.90;99.90;;;;;;5056392;28;20025;-72
2022/01/11 05:15:11;;;;;;;8.50;2.42;;;24.80;99.90;;;;;;5056009;28;20386;-72
2022/01/11 05:17:38;;;;;;;17.38;2.38;;;24.80;99.90;;;;;;5056137;28;20017;-72
2022/01/11 05:20:10;;;;;;;10.32;2.88;;;24.80;99.90;;;;;;5056144;28;20021;-72
2022/01/11 05:22:39;;;;;;;8.88;2.17;;;24.80;99.90;;;;;;5055983;28;20035;-72
2022/01/11 05:25:09;;;;;;;9.40;2.08;;;24.70;99.90;;;;;;5055776;28;20028;-72
2022/01/11 05:27:36;;;;;;;12.30;2.50;;;24.60;99.90;;;;;;5055604;28;20544;-72
2022/01/11 05:30:07;;;;;;;9.35;2.58;;;24.50;99.90;;;;;;5055652;28;20059;-72
2022/01/11 05:32:35;;;;;;;10.13;2.42;;;24.40;99.90;;;;;;5056279;28;20032;-72
2022/01/11 05:35:08;;;;;;;12.55;2.20;;;24.40;99.90;;;;;;5055727;28;20078;-72
2022/01/11 05:37:35;;;;;;;16.33;3.00;;;24.40;99.90;;;;;;5055353;28;20374;-71
2022/01/11 05:40:06;;;;;;;12.93;2.75;;;24.40;99.90;;;;;;5054204;28;20079;-72
2022/01/11 05:42:33;;;;;;;16.80;2.67;;;24.40;99.90;;;;;;5055654;28;20061;-75
2022/01/11 05:45:01;;;;;;;10.52;2.45;;;24.40;99.90;;;;;;5055497;28;20426;-72
2022/01/11 05:47:28;;;;;;;8.25;2.20;;;24.40;99.90;;;;;;5055118;28;20025;-72
2022/01/11 05:49:56;;;;;;;16.80;2.65;;;24.40;99.90;;;;;;5055306;28;20033;-72
2022/01/11 05:52:23;;;;;;;9.93;1.75;;;24.40;99.90;;;;;;5055344;28;20021;-72
2022/01/11 05:54:50;;;;;;;13.07;3.25;;;24.50;99.90;;;;;;5055312;28;20459;-71
2022/01/11 05:57:17;;;;;;;19.42;3.05;;;24.60;99.90;;;;;;5055171;28;20067;-71
2022/01/11 05:59:45;;;;;;;11.50;2.70;;;24.60;99.90;;;;;;5055221;28;20060;-72
2022/01/11 06:02:12;;;;;;;12.43;2.70;;;24.60;99.90;;;;;;5055022;28;20025;-72
2022/01/11 06:04:39;;;;;;;16.33;3.00;;;24.40;99.90;;;;;;5055124;28;20031;-72
2022/01/11 06:07:06;;;;;;;13.30;2.65;;;24.40;99.90;;;;;;5054810;28;20477;-72
2022/01/11 06:09:34;;;;;;;7.82;2.00;;;24.40;99.90;;;;;;5055228;28;20044;-72
2022/01/11 06:12:01;;;;;;;20.23;3.33;;;24.50;99.90;;;;;;5054963;28;20482;-73
2022/01/11 06:14:28;;;;;;;23.00;3.85;;;24.40;99.90;;;;;;5054941;28;20036;-77
2022/01/11 06:16:56;;;;;;;18.70;2.50;;;24.50;99.90;;;;;;5054532;28;20070;-72
2022/01/11 06:19:23;;;;;;;11.48;2.40;;;24.60;99.90;;;;;;5054811;28;20029;-76
2022/01/11 06:21:50;;;;;;;12.60;2.85;;;24.50;99.90;;;;;;5054706;28;20048;-74
2022/01/11 06:24:18;;;;;;;13.35;2.70;;;24.40;99.90;;;;;;5054860;28;20033;-73
2022/01/11 06:26:45;;;;;;;13.43;2.80;;;24.40;99.90;;;;;;5054532;28;20120;-72
2022/01/11 06:29:12;;;;;;;11.68;2.85;;;24.30;99.90;;;;;;5054326;28;20393;-76
2022/01/11 06:31:40;;;;;;;9.55;2.33;;;24.30;99.90;;;;;;5054898;28;20454;-73
2022/01/11 06:34:07;;;;;;;11.52;2.58;;;24.30;99.90;;;;;;5054512;28;20374;-75
2022/01/11 06:36:34;;;;;;;14.27;2.88;;;24.30;99.90;;;;;;5054343;28;20024;-76
2022/01/11 06:39:02;;;;;;;13.35;2.95;;;24.30;99.90;;;;;;5054574;28;20047;-72
2022/01/11 06:41:30;;;;;;;19.00;3.22;;;24.20;99.90;;;;;;5054355;28;20482;-72
2022/01/11 06:43:57;;;;;;;13.45;3.00;;;24.10;99.90;;;;;;5054523;28;20433;-72
2022/01/11 06:46:24;;;;;;;13.82;2.78;;;24.10;99.90;;;;;;5054111;28;20029;-75
2022/01/11 06:48:52;;;;;;;10.98;2.70;;;24.20;99.90;;;;;;5054093;28;20033;-72
2022/01/11 06:51:20;;;;;;;9.52;3.13;;;24.30;99.90;;;;;;5054180;28;20028;-71
2022/01/11 06:53:48;;;;;;;12.40;2.63;;;24.20;99.90;;;;;;5054365;28;20112;-72
2022/01/11 06:56:17;;;;;;;14.80;2.40;;;24.10;99.90;;;;;;5053961;28;20385;-72
2022/01/11 06:58:45;;;;;;;5.68;1.67;;;24.10;99.90;;;;;;5054339;28;20044;-71
2022/01/11 07:01:12;;;;;;;14.65;3.05;;;24.10;99.90;;;;;;5054967;28;20075;-72
2022/01/11 07:03:40;;;;;;;11.95;2.50;;;24.10;99.90;;;;;;5054154;28;20100;-74
2022/01/11 07:06:07;;;;;;;9.77;2.35;;;24.10;99.90;;;;;;5054016;28;20557;-75
2022/01/11 07:08:34;;;;;;;12.30;1.77;;;24.10;99.90;;;;;;5053735;28;20021;-73
2022/01/11 07:11:01;;;;;;;13.70;2.30;;;24.10;99.90;;;;;;5054119;28;20496;-72
2022/01/11 07:13:29;;;;;;;13.27;2.95;;;24.10;99.90;;;;;;5054479;28;20470;-72
2022/01/11 07:15:57;;;;;;;14.05;3.15;;;24.20;99.90;;;;;;5053993;28;20024;-73
2022/01/11 07:18:27;;;;;;;10.68;1.95;;;24.10;99.90;;;;;;5053807;28;20021;-73
2022/01/11 07:20:54;;;;;;;7.18;2.20;;;24.10;99.90;;;;;;5053472;28;20032;-72
2022/01/11 07:23:21;;;;;;;11.35;2.13;;;24.20;99.90;;;;;;5053625;28;20024;-72
2022/01/11 07:25:49;;;;;;;10.40;2.92;;;24.20;99.90;;;;;;5053594;28;20029;-73
2022/01/11 07:28:16;;;;;;;16.20;3.38;;;24.20;99.90;;;;;;5052504;28;20120;-75
2022/01/11 07:30:44;;;;;;;10.82;2.55;;;24.10;99.90;;;;;;5053479;28;20170;-72
2022/01/11 07:33:11;;;;;;;15.07;3.08;;;24.20;99.90;;;;;;5053536;28;20025;-73
2022/01/11 07:35:38;;;;;;;14.95;2.53;;;24.20;99.90;;;;;;5052902;28;20102;-76
2022/01/11 07:38:06;;;;;;;11.45;2.50;;;24.10;99.90;;;;;;5053284;28;20035;-71
2022/01/11 07:40:33;;;;;;;14.00;2.22;;;24.10;99.90;;;;;;5053089;28;20025;-74
2022/01/11 07:43:00;;;;;;;12.40;2.58;;;24.00;99.90;;;;;;5050231;28;20048;-73
2022/01/11 07:45:28;;;;;;;11.07;2.67;;;23.90;99.90;;;;;;5052622;28;20540;-73
2022/01/11 07:47:55;;;;;;;16.55;3.28;;;23.80;99.90;;;;;;5052713;28;20072;-77
2022/01/11 07:50:22;;;;;;;8.77;3.05;;;23.80;99.90;;;;;;5053200;28;20033;-73
2022/01/11 07:52:51;;;;;;;16.08;2.80;;;23.70;99.90;;;;;;5053021;28;20036;-72
2022/01/11 07:55:20;;;;;;;20.90;4.07;;;23.70;99.90;;;;;;5050614;28;20040;-74
2022/01/11 07:57:47;;;;;;;10.25;2.35;;;23.70;99.90;;;;;;5052445;28;20417;-73
2022/01/11 08:00:15;;;;;;;17.55;2.80;;;23.60;99.90;;;;;;5050444;28;20029;-75
2022/01/11 08:02:42;;;;;;;12.55;3.00;;;23.70;99.90;;;;;;5051224;28;20025;-74
2022/01/11 08:05:10;;;;;;;9.07;2.67;;;23.70;99.90;;;;;;5050466;28;20032;-75
2022/01/11 08:07:39;;;;;;;13.70;2.78;;;23.70;99.90;;;;;;5050970;28;20371;-77
2022/01/11 08:10:07;;;;;;;8.23;3.00;;;23.80;99.90;;;;;;5048687;28;20124;-76
2022/01/11 08:12:34;;;;;;;15.93;3.28;;;23.70;99.90;;;;;;5051672;28;20063;-76
2022/01/11 08:15:02;;;;;;;11.65;2.60;;;23.80;99.90;;;;;;5051777;28;20492;-75
2022/01/11 08:17:31;;;;;;;7.97;2.45;;;23.70;99.90;;;;;;5049285;28;20099;-75
2022/01/11 08:19:58;;;;;;;12.65;2.55;;;23.70;99.90;;;;;;5051472;28;20187;-75
2022/01/11 08:22:26;;;;;;;14.93;3.00;;;23.70;99.90;;;;;;5050642;28;20092;-76
2022/01/11 08:24:53;;;;;;;15.73;2.88;;;23.60;99.90;;;;;;5050537;28;20033;-75
2022/01/11 08:27:22;;;;;;;10.38;2.78;;;23.60;99.90;;;;;;5050357;28;20072;-74
2022/01/11 08:29:51;;;;;;;15.82;2.38;;;23.60;99.90;;;;;;5048093;28;20025;-74
2022/01/11 08:32:18;;;;;;;12.60;2.75;;;23.60;99.90;;;;;;5050713;28;20493;-73
2022/01/11 08:34:45;;;;;;;11.20;2.60;;;23.50;99.90;;;;;;5050889;28;20032;-73
2022/01/11 08:37:14;;;;;;;10.07;2.88;;;23.60;99.90;;;;;;5050417;28;20021;-74
2022/01/11 08:39:43;;;;;;;13.23;2.67;;;23.60;99.90;;;;;;5040097;28;20513;-74
2022/01/11 08:42:14;;;;;;;24.08;3.22;;;23.50;99.90;;;;;;5035593;28;20073;-76
2022/01/11 08:44:46;;;;;;;15.55;2.40;;;23.50;99.90;;;;;;5038033;28;20040;-74
2022/01/11 08:47:14;;;;;;;13.20;2.60;;;23.40;99.90;;;;;;5039987;28;20025;-72
2022/01/11 08:49:41;;;;;;;15.73;3.22;;;23.30;99.90;;;;;;5052514;28;20029;-72
2022/01/11 08:52:10;;;;;;;16.67;2.47;;;23.30;99.90;;;;;;5054684;28;20021;-72
2022/01/11 08:54:37;;;;;;;22.30;3.05;;;23.20;99.90;;;;;;5054508;28;20052;-72
2022/01/11 08:57:06;;;;;;;15.98;3.17;;;23.20;99.90;;;;;;5051934;28;20053;-72
2022/01/11 08:59:34;;;;;;;14.75;3.25;;;23.10;99.90;;;;;;5054533;28;20040;-74
2022/01/11 09:02:04;;;;;;;18.95;3.30;;;23.10;99.90;;;;;;5055311;28;20063;-72
2022/01/11 09:04:31;;;;;;;8.65;2.33;;;23.00;99.90;;;;;;5054862;28;20477;-72
2022/01/11 09:06:58;;;;;;;15.63;2.70;;;23.00;99.90;;;;;;5053596;28;20042;-74
2022/01/11 09:09:28;;;;;;;12.02;2.60;;;22.90;99.90;;;;;;5053002;28;20393;-72
2022/01/11 09:11:57;;;;;;;14.30;3.22;;;22.80;99.90;;;;;;5053568;28;20025;-73
2022/01/11 09:14:25;;;;;;;18.35;3.15;;;22.80;99.90;;;;;;5053364;28;20071;-71
2022/01/11 09:16:52;;;;;;;20.05;3.35;;;22.70;99.90;;;;;;5054392;28;20044;-72
2022/01/11 09:19:19;;;;;;;14.73;3.47;;;22.70;99.90;;;;;;5055067;28;20024;-74
2022/01/11 09:21:47;;;;;;;15.63;2.67;;;22.70;99.90;;;;;;5054685;28;20482;-74
2022/01/11 09:24:19;;;;;;;13.95;2.63;;;22.60;99.90;;;;;;5054206;28;20044;-72
2022/01/11 09:26:48;;;;;;;14.32;2.72;;;22.60;99.90;;;;;;5054420;28;20041;-72
2022/01/11 09:29:16;;;;;;;13.80;2.30;;;22.50;99.90;;;;;;5055209;28;20083;-74
2022/01/11 09:31:43;;;;;;;9.60;2.38;;;22.50;99.90;;;;;;5054522;28;20063;-72
2022/01/11 09:34:11;;;;;;;15.05;2.90;;;22.40;99.90;;;;;;5049961;28;20431;-75
2022/01/11 09:36:39;;;;;;;18.50;2.72;;;22.40;99.90;;;;;;5050318;28;20021;-75
2022/01/11 09:39:06;;;;;;;15.77;3.80;;;22.30;99.90;;;;;;5049957;28;20070;-74
2022/01/11 09:41:35;;;;;;;8.50;2.00;;;22.30;99.90;;;;;;5053233;28;20028;-72
2022/01/11 09:44:03;;;;;;;17.27;2.83;;;22.20;99.90;;;;;;5053985;28;20528;-72
2022/01/11 09:46:30;;;;;;;13.18;2.20;;;22.20;99.90;;;;;;5053678;28;20108;-73
2022/01/11 09:48:57;;;;;;;11.48;3.03;;;22.20;99.90;;;;;;5053308;28;20371;-74
2022/01/11 09:51:25;;;;;;;11.63;2.28;;;22.20;99.90;;;;;;5052635;28;20033;-72
2022/01/11 09:53:53;;;;;;;9.93;2.20;;;22.20;99.90;;;;;;5040035;28;20021;-71
2022/01/11 09:56:20;;;;;;;14.88;2.92;;;22.10;99.90;;;;;;5046875;28;20474;-73
2022/01/11 09:58:47;;;;;;;22.35;3.58;;;22.10;99.90;;;;;;5047986;28;20017;-75
2022/01/11 10:01:15;;;;;;;17.83;3.22;;;22.10;99.90;;;;;;5047702;28;20021;-72
2022/01/11 10:04:13;;;;;;;13.63;3.00;;;22.10;99.90;;;;;;5047069;28;20080;-72
2022/01/11 10:06:43;;;;;;;17.63;2.72;;;22.10;99.90;;;;;;5039736;28;20029;-74
2022/01/11 10:09:16;;;;;;;13.63;3.15;;;22.10;99.90;;;;;;5045844;28;20099;-72
2022/01/11 10:11:51;;;;;;;13.70;3.30;;;22.00;99.90;;;;;;5036408;28;20029;-72
2022/01/11 10:14:31;;;;;;;14.33;4.07;;;22.00;99.90;;;;;;5034106;28;20033;-73
2022/01/11 10:17:21;;;;;;;20.05;3.42;;;22.00;99.90;;;;;;5034629;28;20105;-75
2022/01/11 10:20:05;;;;;;;19.10;2.63;;;22.00;99.90;;;;;;5033275;28;20021;-71
2022/01/11 10:22:33;;;;;;;14.55;2.63;;;21.90;99.90;;;;;;5033599;28;20064;-74
2022/01/11 10:25:02;;;;;;;13.90;4.07;;;21.90;99.90;;;;;;5033302;28;20014;-72
2022/01/11 10:27:35;;;;;;;11.60;2.97;;;21.90;99.90;;;;;;5033328;28;20049;-75
2022/01/11 10:30:10;;;;;;;15.57;3.08;;;21.90;99.90;;;;;;5033555;28;20033;-74
2022/01/11 10:32:45;;;;;;;15.43;2.60;;;21.90;99.90;;;;;;5033246;28;20029;-73
2022/01/11 10:35:18;;;;;;;15.27;3.38;;;21.90;99.90;;;;;;5036085;28;20040;-74
2022/01/11 10:37:48;;;;;;;14.98;3.28;;;21.80;99.90;;;;;;5037110;28;20390;-72
2022/01/11 10:40:18;;;;;;;11.30;2.50;;;21.80;99.90;;;;;;5037055;28;20044;-75
2022/01/11 10:42:59;;;;;;;22.75;3.22;;;21.80;99.90;;;;;;5036851;28;20017;-72
2022/01/11 10:45:37;;;;;;;17.33;3.85;;;21.80;99.90;;;;;;5038640;28;20053;-72
2022/01/11 10:48:14;;;;;;;10.18;2.03;;;21.80;99.90;;;;;;5044162;28;20031;-75
2022/01/11 10:50:45;;;;;;;17.52;2.63;;;21.80;99.90;;;;;;5052914;28;20044;-72
2022/01/11 10:53:25;;;;;;;16.20;2.30;;;21.80;99.90;;;;;;5053111;28;20017;-74
2022/01/11 10:55:58;;;;;;;16.27;2.90;;;21.70;99.90;;;;;;5051457;28;20017;-72
2022/01/11 10:58:28;;;;;;;13.00;2.83;;;21.70;99.90;;;;;;5050742;28;20024;-73
2022/01/11 11:00:59;;;;;;;10.07;2.70;;;21.70;99.90;;;;;;5052618;28;20083;-76
2022/01/11 11:03:34;;;;;;;13.45;3.13;;;21.70;99.90;;;;;;5049852;28;20045;-72
2022/01/11 11:06:08;;;;;;;15.25;2.88;;;21.70;99.90;;;;;;5052916;28;20021;-72
2022/01/11 11:08:41;;;;;;;14.57;3.25;;;21.70;99.90;;;;;;5052807;28;20028;-71
2022/01/11 11:11:18;;;;;;;17.20;2.28;;;21.60;99.90;;;;;;5051184;28;20033;-72
2022/01/11 11:13:49;;;;;;;11.35;3.65;;;21.60;99.90;;;;;;5049749;28;20017;-74
2022/01/11 11:16:29;;;;;;;17.55;3.58;;;21.60;99.90;;;;;;5052876;28;20021;-72
2022/01/11 11:19:04;;;;;;;16.50;3.15;;;21.60;99.90;;;;;;5052075;28;20020;-72
2022/01/11 11:21:37;;;;;;;19.42;3.20;;;21.60;99.90;;;;;;5051294;28;20110;-71
2022/01/11 11:24:07;;;;;;;9.30;2.33;;;21.60;99.90;;;;;;5050186;28;20040;-72
2022/01/11 11:26:41;;;;;;;9.98;2.45;;;21.50;99.90;;;;;;5052187;28;20075;-72
2022/01/11 11:29:11;;;;;;;17.27;2.88;;;21.50;99.90;;;;;;5049862;28;20039;-72
2022/01/11 11:31:42;;;;;;;14.73;2.78;;;21.50;99.90;;;;;;5049612;28;20048;-72
2022/01/11 11:34:12;;;;;;;17.15;2.92;;;21.50;99.90;;;;;;5052516;28;20009;-72
2022/01/11 11:36:41;;;;;;;15.50;2.88;;;21.40;99.90;;;;;;5052351;28;20123;-72
2022/01/11 11:39:19;;;;;;;12.05;3.05;;;21.40;99.90;;;;;;5052454;28;20032;-72
2022/01/11 11:41:55;;;;;;;18.17;3.05;;;21.40;99.90;;;;;;5048473;28;20024;-72
2022/01/11 11:44:26;;;;;;;18.63;3.45;;;21.40;99.90;;;;;;5048023;28;20048;-71
2022/01/11 11:46:59;;;;;;;16.20;3.85;;;21.40;99.90;;;;;;5050412;28;20021;-72
2022/01/11 11:49:58;;;;;;;23.00;3.17;;;21.40;99.90;;;;;;5051037;28;20087;-72
2022/01/11 11:52:42;;;;;;;26.85;3.63;;;21.40;99.90;;;;;;5051422;28;20508;-72
2022/01/11 11:55:24;;;;;;;14.73;2.30;;;21.40;99.90;;;;;;5050958;28;20033;-71
2022/01/11 11:57:57;;;;;;;13.23;2.15;;;21.30;99.90;;;;;;5051347;28;20029;-70
2022/01/11 12:00:29;;;;;;;19.80;2.72;;;21.30;99.90;;;;;;5051266;28;20390;-71
2022/01/11 12:02:59;;;;;;;25.27;3.08;;;21.30;99.90;;;;;;5050964;28;20496;-72
2022/01/11 12:05:39;;;;;;;15.63;2.70;;;21.30;99.90;;;;;;5051383;28;20014;-71
2022/01/11 12:08:41;;;;;;;25.25;3.58;;;21.20;99.90;;;;;;5050335;28;20021;-71
2022/01/11 12:11:16;;;;;;;21.02;3.60;;;21.20;99.90;;;;;;5050958;28;20041;-71
2022/01/11 12:13:46;;;;;;;14.93;2.60;;;21.20;99.90;;;;;;5052944;28;20021;-71
2022/01/11 12:16:25;;;;;;;18.00;4.45;;;21.20;99.90;;;;;;5055216;28;20029;-71
2022/01/11 12:18:57;;;;;;;16.13;3.58;;;21.20;99.90;;;;;;5055248;28;20025;-72
2022/01/11 12:21:40;;;;;;;12.70;2.95;;;21.20;99.90;;;;;;5055253;28;20017;-72
2022/01/11 12:24:07;;;;;;;20.08;3.53;;;21.10;99.90;;;;;;5055273;28;20029;-71
2022/01/11 12:26:37;;;;;;;16.45;2.95;;;21.10;99.90;;;;;;5054435;28;20024;-71
2022/01/11 12:29:12;;;;;;;13.52;2.42;;;21.10;99.90;;;;;;5055063;28;20115;-71
2022/01/11 12:31:52;;;;;;;12.82;2.67;;;21.10;99.90;;;;;;5054857;28;20478;-71
2022/01/11 12:34:40;;;;;;;14.40;3.13;;;21.10;99.90;;;;;;5054693;28;20545;-71
2022/01/11 12:37:07;;;;;;;14.90;3.20;;;21.00;99.90;;;;;;5054778;28;20021;-72
2022/01/11 12:40:17;;;;;;;19.05;2.97;;;21.10;99.90;;;;;;5055080;28;20040;-71
2022/01/11 12:43:16;;;;;;;15.23;2.63;;;21.00;99.90;;;;;;5048409;28;20029;-72
2022/01/11 12:46:06;;;;;;;18.90;3.33;;;21.00;99.90;;;;;;5053905;28;20108;-71
2022/01/11 12:48:47;;;;;;;13.20;2.42;;;21.00;99.90;;;;;;5053970;28;20110;-71
2022/01/11 12:51:27;;;;;;;13.88;2.17;;;20.90;99.90;;;;;;5054247;28;20059;-71
2022/01/11 12:54:22;;;;;;;16.02;3.25;;;20.90;99.90;;;;;;5054144;28;20393;-71
2022/01/11 12:56:59;;;;;;;14.90;2.75;;;20.90;99.90;;;;;;5055185;28;20032;-71
2022/01/11 12:59:33;;;;;;;24.63;2.45;;;20.90;99.90;;;;;;5055584;28;20072;-71